Historyczne dane pomiarowe

Dodano dane terminowe – wersja testowa.

Dane z okresu 1951-2019

Wersja bazy: 1.34 [2019-03-16, lista zmian], aktualizacja planowana na 2019-04-15

Dane meteo z obszaru Polski uzyskane na podstawie danych udostępnionych przez Instytut Meteorologii i Gospodarki Wodnej – Państwowy Instytut Badawczy.

 

Wybierz Datę:    

       

TemperaturaWilgotnośćWiatrCiśnienieOpadyŚniegCzas trwania zjawisk
 Stacja t tx tn tng RH VA  wxwx mslp ppp RRR   cm mm wxwxwxwxwxwxwx
2004-08-13 18.3 23.5 13.4 13.2 88.8- 7.3 3.3---- 2.1------------
2004-08-14 16.4 21.3 12.7 11.7 81.0- 7.3 5.0---- 1.3------------
2004-08-15 15.4 22.7 7.9 7.7 67.0- 3.3 1.7---- 0.0------------
2004-08-16 17.0 26.4 6.9 6.7 74.3- 5.0 1.7---- 0.0------------
2004-08-17 18.9 28.4 8.8 8.2 65.5- 6.0 2.0---- 0.0------------
2004-08-18 19.9 29.8 9.8 9.7 66.3- 4.0 1.7---- 0.0------------
2004-08-19 21.8 30.8 12.3 12.2 70.0- 2.3 1.3---- 0.0------------
2004-08-20 20.1 30.8 12.2 12.2 81.0- 6.7 3.7---- 0.0------------
2004-08-21 17.9 22.7 12.7 12.2 90.8- 7.0 1.0---- 5.1------------
2004-08-22 16.5 21.2 13.7 13.7 88.5- 7.3 3.3---- 1.6------------
2004-08-23 13.8 21.0 6.4 5.1 64.8- 4.3 1.7---- 0.0------------
2004-08-24 15.8 24.7 6.1 5.6 74.0- 6.0 2.3---- 4.1------------
2004-08-25 19.1 25.0 14.1 13.2 73.8- 6.0 3.7---- 0.0------------
2004-08-26 16.5 22.7 9.3 9.3 84.3- 6.3 1.0---- 2.2------------
2004-08-27 15.7 21.0 12.2 12.2 81.5- 6.3 3.3---- 0.0------------
2004-08-28 16.5 23.2 8.3 7.7 79.5- 6.0 1.7---- 0.0------------
2004-08-29 19.8 27.8 12.2 10.7 67.8- 4.3 1.7---- 0.0------------
2004-08-30 19.1 27.4 11.8 11.2 71.0- 4.7 1.3---- 5.0------------
2004-08-31 16.1 23.5 12.1 12.1 92.8- 8.0 2.3---- 3.2------------
2004-09-01 13.1 21.1 5.5 5.5 83.3- 6.3 0.7---- 0.0------------
2004-09-02 14.3 23.7 6.3 4.7 74.3- 5.7 0.7---- 0.0------------
2004-09-03 14.7 23.3 7.1 4.7 79.8- 6.0 1.3---- 0.0------------
2004-09-04 15.4 23.1 6.0 5.3 66.8- 5.7 1.7---- 0.0------------
2004-09-05 16.4 21.7 13.7 12.0 85.0- 6.3 1.3---- 0.0------------
2004-09-06 14.9 23.0 7.4 5.6 77.8- 2.7 1.0---- 0.0------------
2004-09-07 15.3 25.1 5.3 4.0 74.0- 6.7 1.0---- 0.0------------
2004-09-08 16.1 19.2 10.5 8.7 46.8- 6.7 3.3---- 0.0------------
2004-09-09 9.3 16.5 2.9 0.7 69.5- 4.7 3.7---- 0.0------------
2004-09-10 9.9 18.9 1.4 0.2 65.3- 3.3 1.7---- 0.0------------
2004-09-11 12.7 23.7 0.2 -0.4 59.5- 5.0 3.0---- 0.0------------
378.4 ms

 

Źródłem pochodzenia danych jest Instytut Meteorologii i Gospodarki Wodnej – Państwowy Instytut Badawczy. Dane Instytutu Meteorologii i Gospodarki Wodnej – Państwowego Instytutu Badawczego zostały przetworzone.

Dane źródłowe można odnaleźć na stronie https://dane.imgw.pl